sensor_id;sensor_type;location;lat;lon;timestamp;P1;durP1;ratioP1;P2;durP2;ratioP2
44169;SDS011;29836;52.286;9.576;2023-12-07T00:01:55;18.55;;;9.43;;
44169;SDS011;29836;52.286;9.576;2023-12-07T00:04:20;20.08;;;10.15;;
44169;SDS011;29836;52.286;9.576;2023-12-07T00:06:46;19.23;;;9.18;;
44169;SDS011;29836;52.286;9.576;2023-12-07T00:09:11;16.30;;;9.52;;
44169;SDS011;29836;52.286;9.576;2023-12-07T00:11:37;17.83;;;9.82;;
44169;SDS011;29836;52.286;9.576;2023-12-07T00:14:02;19.23;;;9.82;;
44169;SDS011;29836;52.286;9.576;2023-12-07T00:16:28;19.08;;;9.98;;
44169;SDS011;29836;52.286;9.576;2023-12-07T00:18:53;22.85;;;10.15;;
44169;SDS011;29836;52.286;9.576;2023-12-07T00:21:19;17.10;;;9.88;;
44169;SDS011;29836;52.286;9.576;2023-12-07T00:23:44;19.73;;;10.45;;
44169;SDS011;29836;52.286;9.576;2023-12-07T00:26:10;17.15;;;9.05;;
44169;SDS011;29836;52.286;9.576;2023-12-07T00:28:35;17.40;;;8.40;;
44169;SDS011;29836;52.286;9.576;2023-12-07T00:31:01;21.60;;;10.40;;
44169;SDS011;29836;52.286;9.576;2023-12-07T00:33:27;21.10;;;10.20;;
44169;SDS011;29836;52.286;9.576;2023-12-07T00:35:52;16.63;;;8.85;;
44169;SDS011;29836;52.286;9.576;2023-12-07T00:38:18;21.63;;;10.63;;
44169;SDS011;29836;52.286;9.576;2023-12-07T00:40:43;20.85;;;10.35;;
44169;SDS011;29836;52.286;9.576;2023-12-07T00:43:09;17.40;;;9.38;;
44169;SDS011;29836;52.286;9.576;2023-12-07T00:45:34;21.92;;;9.90;;
44169;SDS011;29836;52.286;9.576;2023-12-07T00:48:00;19.27;;;10.07;;
44169;SDS011;29836;52.286;9.576;2023-12-07T00:50:26;16.00;;;9.25;;
44169;SDS011;29836;52.286;9.576;2023-12-07T00:52:51;16.38;;;9.15;;
44169;SDS011;29836;52.286;9.576;2023-12-07T00:55:17;17.92;;;9.35;;
44169;SDS011;29836;52.286;9.576;2023-12-07T00:57:42;15.45;;;8.10;;
44169;SDS011;29836;52.286;9.576;2023-12-07T01:00:08;16.10;;;8.98;;
44169;SDS011;29836;52.286;9.576;2023-12-07T01:02:35;14.77;;;8.65;;
44169;SDS011;29836;52.286;9.576;2023-12-07T01:05:01;18.52;;;7.93;;
44169;SDS011;29836;52.286;9.576;2023-12-07T01:07:26;15.68;;;8.93;;
44169;SDS011;29836;52.286;9.576;2023-12-07T01:09:52;16.48;;;7.88;;
44169;SDS011;29836;52.286;9.576;2023-12-07T01:12:17;16.02;;;8.07;;
44169;SDS011;29836;52.286;9.576;2023-12-07T01:14:43;13.90;;;7.82;;
44169;SDS011;29836;52.286;9.576;2023-12-07T01:17:08;15.38;;;7.85;;
44169;SDS011;29836;52.286;9.576;2023-12-07T01:19:34;15.88;;;8.20;;
44169;SDS011;29836;52.286;9.576;2023-12-07T01:22:00;15.55;;;8.32;;
44169;SDS011;29836;52.286;9.576;2023-12-07T01:24:25;18.08;;;7.80;;
44169;SDS011;29836;52.286;9.576;2023-12-07T01:26:51;16.60;;;8.23;;
44169;SDS011;29836;52.286;9.576;2023-12-07T01:29:16;14.77;;;7.88;;
44169;SDS011;29836;52.286;9.576;2023-12-07T01:31:42;16.10;;;7.57;;
44169;SDS011;29836;52.286;9.576;2023-12-07T01:34:09;16.63;;;8.70;;
44169;SDS011;29836;52.286;9.576;2023-12-07T01:36:34;16.90;;;7.93;;
44169;SDS011;29836;52.286;9.576;2023-12-07T01:39:00;15.23;;;7.93;;
44169;SDS011;29836;52.286;9.576;2023-12-07T01:41:25;18.52;;;8.57;;
44169;SDS011;29836;52.286;9.576;2023-12-07T01:43:51;16.08;;;7.85;;
44169;SDS011;29836;52.286;9.576;2023-12-07T01:46:17;17.27;;;8.10;;
44169;SDS011;29836;52.286;9.576;2023-12-07T01:48:43;14.38;;;8.13;;
44169;SDS011;29836;52.286;9.576;2023-12-07T01:51:09;14.27;;;7.80;;
44169;SDS011;29836;52.286;9.576;2023-12-07T01:53:37;13.95;;;7.75;;
44169;SDS011;29836;52.286;9.576;2023-12-07T01:56:04;15.13;;;8.07;;
44169;SDS011;29836;52.286;9.576;2023-12-07T01:58:30;15.80;;;8.13;;
44169;SDS011;29836;52.286;9.576;2023-12-07T02:00:56;15.68;;;8.40;;
44169;SDS011;29836;52.286;9.576;2023-12-07T02:03:21;17.20;;;8.85;;
44169;SDS011;29836;52.286;9.576;2023-12-07T02:05:49;15.98;;;8.10;;
44169;SDS011;29836;52.286;9.576;2023-12-07T02:08:16;16.33;;;9.25;;
44169;SDS011;29836;52.286;9.576;2023-12-07T02:10:41;21.08;;;8.82;;
44169;SDS011;29836;52.286;9.576;2023-12-07T02:13:07;16.33;;;8.77;;
44169;SDS011;29836;52.286;9.576;2023-12-07T02:15:33;14.07;;;8.20;;
44169;SDS011;29836;52.286;9.576;2023-12-07T02:18:03;16.45;;;8.82;;
44169;SDS011;29836;52.286;9.576;2023-12-07T02:20:44;15.73;;;7.93;;
44169;SDS011;29836;52.286;9.576;2023-12-07T02:23:18;15.65;;;8.45;;
44169;SDS011;29836;52.286;9.576;2023-12-07T02:25:48;17.17;;;9.13;;
44169;SDS011;29836;52.286;9.576;2023-12-07T02:28:17;14.77;;;8.40;;
44169;SDS011;29836;52.286;9.576;2023-12-07T02:30:42;18.05;;;9.02;;
44169;SDS011;29836;52.286;9.576;2023-12-07T02:33:08;15.10;;;7.72;;
44169;SDS011;29836;52.286;9.576;2023-12-07T02:35:35;13.77;;;7.18;;
44169;SDS011;29836;52.286;9.576;2023-12-07T02:38:01;14.82;;;7.68;;
44169;SDS011;29836;52.286;9.576;2023-12-07T02:40:28;12.93;;;7.68;;
44169;SDS011;29836;52.286;9.576;2023-12-07T02:42:54;13.85;;;7.97;;
44169;SDS011;29836;52.286;9.576;2023-12-07T02:45:21;15.90;;;9.10;;
44169;SDS011;29836;52.286;9.576;2023-12-07T02:47:46;16.27;;;8.35;;
44169;SDS011;29836;52.286;9.576;2023-12-07T02:50:12;16.58;;;8.50;;
44169;SDS011;29836;52.286;9.576;2023-12-07T02:52:38;14.32;;;7.70;;
44169;SDS011;29836;52.286;9.576;2023-12-07T02:55:04;14.95;;;8.10;;
44169;SDS011;29836;52.286;9.576;2023-12-07T02:57:30;16.98;;;8.63;;
44169;SDS011;29836;52.286;9.576;2023-12-07T02:59:58;16.67;;;8.23;;
44169;SDS011;29836;52.286;9.576;2023-12-07T03:02:24;15.88;;;8.15;;
44169;SDS011;29836;52.286;9.576;2023-12-07T03:04:49;14.18;;;8.00;;
44169;SDS011;29836;52.286;9.576;2023-12-07T03:07:15;14.93;;;8.52;;
44169;SDS011;29836;52.286;9.576;2023-12-07T03:09:40;13.32;;;7.45;;
44169;SDS011;29836;52.286;9.576;2023-12-07T03:12:06;11.80;;;6.85;;
44169;SDS011;29836;52.286;9.576;2023-12-07T03:14:32;16.48;;;7.55;;
44169;SDS011;29836;52.286;9.576;2023-12-07T03:16:57;15.25;;;7.43;;
44169;SDS011;29836;52.286;9.576;2023-12-07T03:19:23;19.75;;;8.00;;
44169;SDS011;29836;52.286;9.576;2023-12-07T03:21:49;13.05;;;7.10;;
44169;SDS011;29836;52.286;9.576;2023-12-07T03:24:14;12.57;;;7.32;;
44169;SDS011;29836;52.286;9.576;2023-12-07T03:26:40;14.88;;;8.43;;
44169;SDS011;29836;52.286;9.576;2023-12-07T03:29:05;12.88;;;7.40;;
44169;SDS011;29836;52.286;9.576;2023-12-07T03:31:31;15.95;;;7.75;;
44169;SDS011;29836;52.286;9.576;2023-12-07T03:33:57;12.63;;;7.57;;
44169;SDS011;29836;52.286;9.576;2023-12-07T03:36:24;12.57;;;7.22;;
44169;SDS011;29836;52.286;9.576;2023-12-07T03:38:49;12.02;;;6.82;;
44169;SDS011;29836;52.286;9.576;2023-12-07T03:41:15;14.98;;;8.07;;
44169;SDS011;29836;52.286;9.576;2023-12-07T03:43:40;14.07;;;7.18;;
44169;SDS011;29836;52.286;9.576;2023-12-07T03:46:06;13.88;;;7.10;;
44169;SDS011;29836;52.286;9.576;2023-12-07T03:48:32;15.63;;;7.93;;
44169;SDS011;29836;52.286;9.576;2023-12-07T03:50:58;14.52;;;6.28;;
44169;SDS011;29836;52.286;9.576;2023-12-07T03:53:24;14.52;;;6.95;;
44169;SDS011;29836;52.286;9.576;2023-12-07T03:55:50;11.95;;;6.45;;
44169;SDS011;29836;52.286;9.576;2023-12-07T03:58:16;13.98;;;7.28;;
44169;SDS011;29836;52.286;9.576;2023-12-07T04:00:41;15.50;;;7.78;;
44169;SDS011;29836;52.286;9.576;2023-12-07T04:03:07;13.55;;;7.22;;
44169;SDS011;29836;52.286;9.576;2023-12-07T04:05:33;16.10;;;7.35;;
44169;SDS011;29836;52.286;9.576;2023-12-07T04:07:58;14.35;;;7.32;;
44169;SDS011;29836;52.286;9.576;2023-12-07T04:10:24;17.45;;;7.75;;
44169;SDS011;29836;52.286;9.576;2023-12-07T04:12:50;12.07;;;6.72;;
44169;SDS011;29836;52.286;9.576;2023-12-07T04:15:17;13.70;;;6.57;;
44169;SDS011;29836;52.286;9.576;2023-12-07T04:17:46;15.45;;;7.53;;
44169;SDS011;29836;52.286;9.576;2023-12-07T04:20:12;12.35;;;6.65;;
44169;SDS011;29836;52.286;9.576;2023-12-07T04:22:40;12.70;;;7.05;;
44169;SDS011;29836;52.286;9.576;2023-12-07T04:25:06;13.90;;;7.72;;
44169;SDS011;29836;52.286;9.576;2023-12-07T04:27:33;13.55;;;7.55;;
44169;SDS011;29836;52.286;9.576;2023-12-07T04:29:58;14.63;;;7.25;;
44169;SDS011;29836;52.286;9.576;2023-12-07T04:32:24;17.77;;;9.13;;
44169;SDS011;29836;52.286;9.576;2023-12-07T04:34:50;20.92;;;9.02;;
44169;SDS011;29836;52.286;9.576;2023-12-07T04:37:16;16.75;;;9.07;;
44169;SDS011;29836;52.286;9.576;2023-12-07T04:39:42;21.77;;;10.18;;
44169;SDS011;29836;52.286;9.576;2023-12-07T04:42:07;23.20;;;11.25;;
44169;SDS011;29836;52.286;9.576;2023-12-07T04:44:33;18.92;;;9.70;;
44169;SDS011;29836;52.286;9.576;2023-12-07T04:46:58;18.73;;;9.65;;
44169;SDS011;29836;52.286;9.576;2023-12-07T04:49:24;16.60;;;9.05;;
44169;SDS011;29836;52.286;9.576;2023-12-07T04:51:49;16.92;;;8.77;;
44169;SDS011;29836;52.286;9.576;2023-12-07T04:54:15;14.27;;;7.80;;
44169;SDS011;29836;52.286;9.576;2023-12-07T04:56:41;15.63;;;7.82;;
44169;SDS011;29836;52.286;9.576;2023-12-07T04:59:07;16.00;;;7.88;;
44169;SDS011;29836;52.286;9.576;2023-12-07T05:01:34;18.08;;;8.00;;
44169;SDS011;29836;52.286;9.576;2023-12-07T05:04:00;17.73;;;8.02;;
44169;SDS011;29836;52.286;9.576;2023-12-07T05:06:28;17.98;;;8.50;;
44169;SDS011;29836;52.286;9.576;2023-12-07T05:08:57;18.63;;;9.48;;
44169;SDS011;29836;52.286;9.576;2023-12-07T05:11:23;18.50;;;9.60;;
44169;SDS011;29836;52.286;9.576;2023-12-07T05:13:48;18.10;;;8.98;;
44169;SDS011;29836;52.286;9.576;2023-12-07T05:16:14;16.30;;;8.70;;
44169;SDS011;29836;52.286;9.576;2023-12-07T05:18:40;18.38;;;9.23;;
44169;SDS011;29836;52.286;9.576;2023-12-07T05:21:06;17.02;;;8.48;;
44169;SDS011;29836;52.286;9.576;2023-12-07T05:23:32;17.40;;;9.63;;
44169;SDS011;29836;52.286;9.576;2023-12-07T05:25:58;17.27;;;9.32;;
44169;SDS011;29836;52.286;9.576;2023-12-07T05:28:25;19.20;;;9.85;;
44169;SDS011;29836;52.286;9.576;2023-12-07T05:30:51;20.48;;;9.68;;
44169;SDS011;29836;52.286;9.576;2023-12-07T05:33:17;23.20;;;9.80;;
44169;SDS011;29836;52.286;9.576;2023-12-07T05:35:44;18.83;;;8.82;;
44169;SDS011;29836;52.286;9.576;2023-12-07T05:38:10;16.45;;;8.32;;
44169;SDS011;29836;52.286;9.576;2023-12-07T05:40:35;16.77;;;9.40;;
44169;SDS011;29836;52.286;9.576;2023-12-07T05:43:01;15.65;;;8.30;;
44169;SDS011;29836;52.286;9.576;2023-12-07T05:45:26;16.88;;;9.00;;
44169;SDS011;29836;52.286;9.576;2023-12-07T05:47:52;19.48;;;10.00;;
44169;SDS011;29836;52.286;9.576;2023-12-07T05:50:17;29.48;;;11.70;;
44169;SDS011;29836;52.286;9.576;2023-12-07T05:52:43;23.55;;;10.07;;
44169;SDS011;29836;52.286;9.576;2023-12-07T05:55:09;20.23;;;10.02;;
44169;SDS011;29836;52.286;9.576;2023-12-07T05:57:34;19.77;;;9.70;;
44169;SDS011;29836;52.286;9.576;2023-12-07T06:00:00;23.63;;;11.02;;
44169;SDS011;29836;52.286;9.576;2023-12-07T06:02:26;18.63;;;8.75;;
44169;SDS011;29836;52.286;9.576;2023-12-07T06:04:52;18.90;;;9.10;;
44169;SDS011;29836;52.286;9.576;2023-12-07T06:07:17;17.15;;;8.02;;
44169;SDS011;29836;52.286;9.576;2023-12-07T06:09:43;13.63;;;7.40;;
44169;SDS011;29836;52.286;9.576;2023-12-07T06:12:08;18.33;;;8.23;;
44169;SDS011;29836;52.286;9.576;2023-12-07T06:14:34;17.50;;;8.10;;
44169;SDS011;29836;52.286;9.576;2023-12-07T06:16:59;17.10;;;8.82;;
44169;SDS011;29836;52.286;9.576;2023-12-07T06:19:26;11.70;;;6.80;;
44169;SDS011;29836;52.286;9.576;2023-12-07T06:21:51;13.10;;;7.90;;
44169;SDS011;29836;52.286;9.576;2023-12-07T06:24:17;14.65;;;6.72;;
44169;SDS011;29836;52.286;9.576;2023-12-07T06:26:42;16.35;;;7.18;;
44169;SDS011;29836;52.286;9.576;2023-12-07T06:29:08;13.45;;;7.28;;
44169;SDS011;29836;52.286;9.576;2023-12-07T06:31:33;15.00;;;6.57;;
44169;SDS011;29836;52.286;9.576;2023-12-07T06:33:59;14.82;;;7.40;;
44169;SDS011;29836;52.286;9.576;2023-12-07T06:36:25;15.40;;;7.28;;
44169;SDS011;29836;52.286;9.576;2023-12-07T06:38:51;12.85;;;6.88;;
44169;SDS011;29836;52.286;9.576;2023-12-07T06:41:18;13.63;;;7.28;;
44169;SDS011;29836;52.286;9.576;2023-12-07T06:43:43;14.13;;;7.25;;
44169;SDS011;29836;52.286;9.576;2023-12-07T06:46:13;15.25;;;7.22;;
44169;SDS011;29836;52.286;9.576;2023-12-07T06:48:39;13.50;;;6.68;;
44169;SDS011;29836;52.286;9.576;2023-12-07T06:51:06;14.23;;;6.88;;
44169;SDS011;29836;52.286;9.576;2023-12-07T06:53:31;17.60;;;7.65;;
44169;SDS011;29836;52.286;9.576;2023-12-07T06:55:57;15.85;;;8.38;;
44169;SDS011;29836;52.286;9.576;2023-12-07T06:58:23;16.23;;;7.80;;
44169;SDS011;29836;52.286;9.576;2023-12-07T07:00:49;15.40;;;8.02;;
44169;SDS011;29836;52.286;9.576;2023-12-07T07:03:15;15.63;;;8.05;;
44169;SDS011;29836;52.286;9.576;2023-12-07T07:05:41;15.00;;;7.38;;
44169;SDS011;29836;52.286;9.576;2023-12-07T07:08:06;17.25;;;8.38;;
44169;SDS011;29836;52.286;9.576;2023-12-07T07:10:35;14.63;;;8.15;;
44169;SDS011;29836;52.286;9.576;2023-12-07T07:13:01;19.85;;;8.77;;
44169;SDS011;29836;52.286;9.576;2023-12-07T07:15:30;19.38;;;9.20;;
44169;SDS011;29836;52.286;9.576;2023-12-07T07:17:57;16.67;;;8.75;;
44169;SDS011;29836;52.286;9.576;2023-12-07T07:20:22;17.90;;;8.50;;
44169;SDS011;29836;52.286;9.576;2023-12-07T07:22:48;20.30;;;8.02;;
44169;SDS011;29836;52.286;9.576;2023-12-07T07:25:13;17.58;;;8.35;;
44169;SDS011;29836;52.286;9.576;2023-12-07T07:27:41;16.90;;;8.25;;
44169;SDS011;29836;52.286;9.576;2023-12-07T07:30:07;16.33;;;8.55;;
44169;SDS011;29836;52.286;9.576;2023-12-07T07:32:33;14.88;;;8.05;;
44169;SDS011;29836;52.286;9.576;2023-12-07T07:34:59;14.55;;;8.18;;
44169;SDS011;29836;52.286;9.576;2023-12-07T07:37:24;20.15;;;8.25;;
44169;SDS011;29836;52.286;9.576;2023-12-07T07:39:50;16.88;;;8.45;;
44169;SDS011;29836;52.286;9.576;2023-12-07T07:42:15;16.98;;;8.98;;
44169;SDS011;29836;52.286;9.576;2023-12-07T07:44:41;20.17;;;8.30;;
44169;SDS011;29836;52.286;9.576;2023-12-07T07:47:07;16.83;;;8.35;;
44169;SDS011;29836;52.286;9.576;2023-12-07T07:49:33;16.35;;;7.72;;
44169;SDS011;29836;52.286;9.576;2023-12-07T07:51:58;16.98;;;8.05;;
44169;SDS011;29836;52.286;9.576;2023-12-07T07:54:24;15.90;;;7.80;;
44169;SDS011;29836;52.286;9.576;2023-12-07T07:56:50;18.08;;;8.88;;
44169;SDS011;29836;52.286;9.576;2023-12-07T07:59:16;14.60;;;7.50;;
44169;SDS011;29836;52.286;9.576;2023-12-07T08:01:41;17.85;;;7.70;;
44169;SDS011;29836;52.286;9.576;2023-12-07T08:04:07;14.02;;;7.15;;
44169;SDS011;29836;52.286;9.576;2023-12-07T08:06:33;13.18;;;7.05;;
44169;SDS011;29836;52.286;9.576;2023-12-07T08:08:59;13.60;;;7.07;;
44169;SDS011;29836;52.286;9.576;2023-12-07T08:11:24;12.40;;;6.97;;
44169;SDS011;29836;52.286;9.576;2023-12-07T08:13:50;14.68;;;7.70;;
44169;SDS011;29836;52.286;9.576;2023-12-07T08:16:16;16.08;;;7.63;;
44169;SDS011;29836;52.286;9.576;2023-12-07T08:18:41;11.48;;;6.55;;
44169;SDS011;29836;52.286;9.576;2023-12-07T08:21:07;14.25;;;6.95;;
44169;SDS011;29836;52.286;9.576;2023-12-07T08:23:33;13.63;;;7.07;;
44169;SDS011;29836;52.286;9.576;2023-12-07T08:25:59;14.38;;;6.88;;
44169;SDS011;29836;52.286;9.576;2023-12-07T08:28:25;14.77;;;6.85;;
44169;SDS011;29836;52.286;9.576;2023-12-07T08:30:51;16.38;;;7.55;;
44169;SDS011;29836;52.286;9.576;2023-12-07T08:33:16;14.02;;;7.28;;
44169;SDS011;29836;52.286;9.576;2023-12-07T08:35:42;16.48;;;7.72;;
44169;SDS011;29836;52.286;9.576;2023-12-07T08:38:07;16.17;;;7.28;;
44169;SDS011;29836;52.286;9.576;2023-12-07T08:40:33;14.70;;;8.25;;
44169;SDS011;29836;52.286;9.576;2023-12-07T08:42:58;14.43;;;7.70;;
44169;SDS011;29836;52.286;9.576;2023-12-07T08:45:24;13.82;;;7.22;;
44169;SDS011;29836;52.286;9.576;2023-12-07T08:47:49;13.77;;;7.43;;
44169;SDS011;29836;52.286;9.576;2023-12-07T08:50:15;12.93;;;7.53;;
44169;SDS011;29836;52.286;9.576;2023-12-07T08:52:40;12.73;;;7.00;;
44169;SDS011;29836;52.286;9.576;2023-12-07T08:55:06;13.77;;;7.30;;
44169;SDS011;29836;52.286;9.576;2023-12-07T08:57:32;20.55;;;8.60;;
44169;SDS011;29836;52.286;9.576;2023-12-07T08:59:57;17.50;;;8.30;;
44169;SDS011;29836;52.286;9.576;2023-12-07T09:02:24;14.43;;;7.38;;
44169;SDS011;29836;52.286;9.576;2023-12-07T09:04:50;12.52;;;6.65;;
44169;SDS011;29836;52.286;9.576;2023-12-07T09:07:16;12.85;;;6.57;;
44169;SDS011;29836;52.286;9.576;2023-12-07T09:09:42;14.57;;;7.68;;
44169;SDS011;29836;52.286;9.576;2023-12-07T09:12:13;28.13;;;8.05;;
44169;SDS011;29836;52.286;9.576;2023-12-07T09:14:39;17.02;;;8.20;;
44169;SDS011;29836;52.286;9.576;2023-12-07T09:17:05;15.80;;;8.45;;
44169;SDS011;29836;52.286;9.576;2023-12-07T09:19:30;14.10;;;7.45;;
44169;SDS011;29836;52.286;9.576;2023-12-07T09:21:56;12.50;;;6.95;;
44169;SDS011;29836;52.286;9.576;2023-12-07T09:24:23;12.13;;;6.07;;
44169;SDS011;29836;52.286;9.576;2023-12-07T09:26:49;14.82;;;7.80;;
44169;SDS011;29836;52.286;9.576;2023-12-07T09:29:14;15.45;;;7.80;;
44169;SDS011;29836;52.286;9.576;2023-12-07T09:31:40;15.73;;;8.02;;
44169;SDS011;29836;52.286;9.576;2023-12-07T09:34:05;18.90;;;8.80;;
44169;SDS011;29836;52.286;9.576;2023-12-07T09:36:33;13.95;;;7.03;;
44169;SDS011;29836;52.286;9.576;2023-12-07T09:38:58;16.73;;;8.02;;
44169;SDS011;29836;52.286;9.576;2023-12-07T09:41:24;15.25;;;8.73;;
44169;SDS011;29836;52.286;9.576;2023-12-07T09:43:53;15.40;;;7.88;;
44169;SDS011;29836;52.286;9.576;2023-12-07T09:46:19;16.35;;;8.40;;
44169;SDS011;29836;52.286;9.576;2023-12-07T09:48:45;16.48;;;8.30;;
44169;SDS011;29836;52.286;9.576;2023-12-07T09:51:14;15.68;;;7.78;;
44169;SDS011;29836;52.286;9.576;2023-12-07T09:53:40;15.27;;;8.20;;
44169;SDS011;29836;52.286;9.576;2023-12-07T09:56:08;15.40;;;8.13;;
44169;SDS011;29836;52.286;9.576;2023-12-07T09:58:34;18.40;;;9.35;;
44169;SDS011;29836;52.286;9.576;2023-12-07T10:00:59;20.02;;;9.90;;
44169;SDS011;29836;52.286;9.576;2023-12-07T10:03:25;19.88;;;9.20;;
44169;SDS011;29836;52.286;9.576;2023-12-07T10:09:13;14.52;;;8.00;;
44169;SDS011;29836;52.286;9.576;2023-12-07T10:11:39;17.70;;;9.55;;
44169;SDS011;29836;52.286;9.576;2023-12-07T10:14:06;17.48;;;8.50;;
44169;SDS011;29836;52.286;9.576;2023-12-07T10:16:35;17.75;;;9.57;;
44169;SDS011;29836;52.286;9.576;2023-12-07T10:19:13;16.95;;;9.07;;
44169;SDS011;29836;52.286;9.576;2023-12-07T10:21:42;20.63;;;9.23;;
44169;SDS011;29836;52.286;9.576;2023-12-07T10:24:09;13.63;;;8.38;;
44169;SDS011;29836;52.286;9.576;2023-12-07T10:26:35;16.88;;;8.73;;
44169;SDS011;29836;52.286;9.576;2023-12-07T10:29:07;19.48;;;8.20;;
44169;SDS011;29836;52.286;9.576;2023-12-07T10:31:32;15.40;;;8.32;;
44169;SDS011;29836;52.286;9.576;2023-12-07T10:33:59;20.17;;;9.05;;
44169;SDS011;29836;52.286;9.576;2023-12-07T10:36:25;18.63;;;9.80;;
44169;SDS011;29836;52.286;9.576;2023-12-07T10:38:51;18.48;;;8.90;;
44169;SDS011;29836;52.286;9.576;2023-12-07T10:41:21;18.25;;;8.48;;
44169;SDS011;29836;52.286;9.576;2023-12-07T10:43:48;18.45;;;9.15;;
44169;SDS011;29836;52.286;9.576;2023-12-07T10:46:16;23.17;;;9.88;;
44169;SDS011;29836;52.286;9.576;2023-12-07T10:48:46;16.83;;;7.78;;
44169;SDS011;29836;52.286;9.576;2023-12-07T10:51:14;17.92;;;8.93;;
44169;SDS011;29836;52.286;9.576;2023-12-07T10:54:02;13.70;;;7.13;;
44169;SDS011;29836;52.286;9.576;2023-12-07T10:56:32;13.93;;;7.53;;
44169;SDS011;29836;52.286;9.576;2023-12-07T10:59:08;18.88;;;8.48;;
44169;SDS011;29836;52.286;9.576;2023-12-07T11:01:38;14.48;;;7.35;;
44169;SDS011;29836;52.286;9.576;2023-12-07T11:04:08;16.30;;;7.53;;
44169;SDS011;29836;52.286;9.576;2023-12-07T11:06:37;17.08;;;8.52;;
44169;SDS011;29836;52.286;9.576;2023-12-07T11:09:10;16.77;;;8.82;;
44169;SDS011;29836;52.286;9.576;2023-12-07T11:11:51;17.17;;;7.72;;
44169;SDS011;29836;52.286;9.576;2023-12-07T11:14:21;16.70;;;8.07;;
44169;SDS011;29836;52.286;9.576;2023-12-07T11:16:47;16.42;;;8.90;;
44169;SDS011;29836;52.286;9.576;2023-12-07T11:22:07;21.75;;;10.20;;
44169;SDS011;29836;52.286;9.576;2023-12-07T11:24:35;18.23;;;9.40;;
44169;SDS011;29836;52.286;9.576;2023-12-07T11:27:02;22.85;;;12.25;;
44169;SDS011;29836;52.286;9.576;2023-12-07T11:29:28;16.38;;;8.80;;
44169;SDS011;29836;52.286;9.576;2023-12-07T11:32:01;17.92;;;7.97;;
44169;SDS011;29836;52.286;9.576;2023-12-07T11:34:41;23.15;;;8.20;;
44169;SDS011;29836;52.286;9.576;2023-12-07T11:37:09;15.27;;;8.25;;
44169;SDS011;29836;52.286;9.576;2023-12-07T11:39:39;15.82;;;7.55;;
44169;SDS011;29836;52.286;9.576;2023-12-07T11:42:17;17.42;;;8.35;;
44169;SDS011;29836;52.286;9.576;2023-12-07T11:44:48;16.35;;;7.90;;
44169;SDS011;29836;52.286;9.576;2023-12-07T11:47:24;19.48;;;9.27;;
44169;SDS011;29836;52.286;9.576;2023-12-07T11:49:51;19.42;;;8.93;;
44169;SDS011;29836;52.286;9.576;2023-12-07T11:52:19;16.52;;;9.10;;
44169;SDS011;29836;52.286;9.576;2023-12-07T11:54:49;20.90;;;10.38;;
44169;SDS011;29836;52.286;9.576;2023-12-07T11:57:15;19.08;;;9.85;;
44169;SDS011;29836;52.286;9.576;2023-12-07T11:59:45;19.50;;;9.10;;
44169;SDS011;29836;52.286;9.576;2023-12-07T12:02:14;18.17;;;8.52;;
44169;SDS011;29836;52.286;9.576;2023-12-07T12:04:41;15.75;;;8.38;;
44169;SDS011;29836;52.286;9.576;2023-12-07T12:07:09;17.15;;;9.10;;
44169;SDS011;29836;52.286;9.576;2023-12-07T12:09:36;18.38;;;8.80;;
44169;SDS011;29836;52.286;9.576;2023-12-07T12:12:08;18.80;;;9.30;;
44169;SDS011;29836;52.286;9.576;2023-12-07T12:14:34;18.40;;;9.27;;
44169;SDS011;29836;52.286;9.576;2023-12-07T12:17:00;18.38;;;8.63;;
44169;SDS011;29836;52.286;9.576;2023-12-07T12:19:26;16.95;;;9.57;;
44169;SDS011;29836;52.286;9.576;2023-12-07T12:21:53;19.50;;;9.32;;
44169;SDS011;29836;52.286;9.576;2023-12-07T12:24:19;18.05;;;9.45;;
44169;SDS011;29836;52.286;9.576;2023-12-07T12:26:45;17.73;;;9.05;;
44169;SDS011;29836;52.286;9.576;2023-12-07T12:29:12;18.05;;;9.38;;
44169;SDS011;29836;52.286;9.576;2023-12-07T12:31:38;24.85;;;11.40;;
44169;SDS011;29836;52.286;9.576;2023-12-07T12:34:07;27.58;;;12.77;;
44169;SDS011;29836;52.286;9.576;2023-12-07T12:36:33;19.10;;;9.52;;
44169;SDS011;29836;52.286;9.576;2023-12-07T12:38:59;16.20;;;7.68;;
44169;SDS011;29836;52.286;9.576;2023-12-07T12:41:27;21.15;;;9.30;;
44169;SDS011;29836;52.286;9.576;2023-12-07T12:43:55;16.75;;;8.68;;
44169;SDS011;29836;52.286;9.576;2023-12-07T12:46:21;21.77;;;9.43;;
44169;SDS011;29836;52.286;9.576;2023-12-07T12:48:56;24.50;;;11.82;;
44169;SDS011;29836;52.286;9.576;2023-12-07T12:51:24;20.60;;;10.88;;
44169;SDS011;29836;52.286;9.576;2023-12-07T12:53:52;23.80;;;12.73;;
44169;SDS011;29836;52.286;9.576;2023-12-07T12:56:18;21.60;;;10.23;;
44169;SDS011;29836;52.286;9.576;2023-12-07T12:58:46;22.10;;;10.85;;
44169;SDS011;29836;52.286;9.576;2023-12-07T13:01:17;23.23;;;10.63;;
44169;SDS011;29836;52.286;9.576;2023-12-07T13:03:51;22.90;;;11.77;;
44169;SDS011;29836;52.286;9.576;2023-12-07T13:06:17;19.10;;;10.07;;
44169;SDS011;29836;52.286;9.576;2023-12-07T13:08:43;17.77;;;8.40;;
44169;SDS011;29836;52.286;9.576;2023-12-07T13:11:09;18.30;;;7.68;;
44169;SDS011;29836;52.286;9.576;2023-12-07T13:13:41;20.75;;;10.13;;
44169;SDS011;29836;52.286;9.576;2023-12-07T13:16:07;22.50;;;10.85;;
44169;SDS011;29836;52.286;9.576;2023-12-07T13:18:34;20.92;;;10.82;;
44169;SDS011;29836;52.286;9.576;2023-12-07T13:21:05;18.15;;;9.13;;
44169;SDS011;29836;52.286;9.576;2023-12-07T13:23:35;15.40;;;8.02;;
44169;SDS011;29836;52.286;9.576;2023-12-07T13:26:01;23.88;;;10.27;;
44169;SDS011;29836;52.286;9.576;2023-12-07T13:28:35;13.48;;;6.90;;
44169;SDS011;29836;52.286;9.576;2023-12-07T13:31:01;13.00;;;7.00;;
44169;SDS011;29836;52.286;9.576;2023-12-07T13:33:27;15.30;;;6.68;;
44169;SDS011;29836;52.286;9.576;2023-12-07T13:35:53;15.18;;;7.30;;
44169;SDS011;29836;52.286;9.576;2023-12-07T13:38:19;15.15;;;6.75;;
44169;SDS011;29836;52.286;9.576;2023-12-07T13:40:45;15.02;;;7.72;;
44169;SDS011;29836;52.286;9.576;2023-12-07T13:43:11;15.60;;;7.57;;
44169;SDS011;29836;52.286;9.576;2023-12-07T13:45:37;17.08;;;7.78;;
44169;SDS011;29836;52.286;9.576;2023-12-07T13:48:03;11.07;;;5.90;;
44169;SDS011;29836;52.286;9.576;2023-12-07T13:50:29;13.85;;;5.93;;
44169;SDS011;29836;52.286;9.576;2023-12-07T13:52:54;13.00;;;6.20;;
44169;SDS011;29836;52.286;9.576;2023-12-07T13:55:20;9.68;;;5.50;;
44169;SDS011;29836;52.286;9.576;2023-12-07T13:57:45;12.35;;;5.45;;
44169;SDS011;29836;52.286;9.576;2023-12-07T14:00:11;9.85;;;5.50;;
44169;SDS011;29836;52.286;9.576;2023-12-07T14:02:38;12.57;;;5.95;;
44169;SDS011;29836;52.286;9.576;2023-12-07T14:05:04;11.48;;;5.30;;
44169;SDS011;29836;52.286;9.576;2023-12-07T14:07:30;13.32;;;4.90;;
44169;SDS011;29836;52.286;9.576;2023-12-07T14:09:56;9.52;;;4.55;;
44169;SDS011;29836;52.286;9.576;2023-12-07T14:12:21;9.85;;;4.25;;
44169;SDS011;29836;52.286;9.576;2023-12-07T14:14:48;11.02;;;4.68;;
44169;SDS011;29836;52.286;9.576;2023-12-07T14:17:14;7.88;;;3.90;;
44169;SDS011;29836;52.286;9.576;2023-12-07T14:19:41;7.75;;;3.80;;
44169;SDS011;29836;52.286;9.576;2023-12-07T14:22:07;6.82;;;3.50;;
44169;SDS011;29836;52.286;9.576;2023-12-07T14:24:34;14.88;;;4.00;;
44169;SDS011;29836;52.286;9.576;2023-12-07T14:27:01;13.70;;;6.53;;
44169;SDS011;29836;52.286;9.576;2023-12-07T14:29:28;11.70;;;6.35;;
44169;SDS011;29836;52.286;9.576;2023-12-07T14:31:54;13.00;;;6.68;;
44169;SDS011;29836;52.286;9.576;2023-12-07T14:34:20;13.85;;;7.32;;
44169;SDS011;29836;52.286;9.576;2023-12-07T14:36:46;18.77;;;8.00;;